Time;durP1;ratioP1;P1;durP2;ratioP2;P2;SDS_P1;SDS_P2;PMS_P1;PMS_P2;Temp;Humidity;BMP_temperature;BMP_pressure;BME280_temperature;BME280_humidity;BME280_pressure;Samples;Min_cycle;Max_cycle;Signal;HPM_P1;HPM_P2
2021/06/03 00:00:58;;;;;;;3.83;3.50;;;22.30;70.20;;;;;;5053556;28;20178;-71
2021/06/03 00:03:27;;;;;;;5.67;3.70;;;22.20;72.40;;;;;;5053560;28;20202;-71
2021/06/03 00:05:55;;;;;;;4.00;3.60;;;22.20;74.00;;;;;;5053410;28;20433;-72
2021/06/03 00:08:23;;;;;;;3.87;3.43;;;22.10;75.50;;;;;;5053724;28;20416;-71
2021/06/03 00:10:58;;;;;;;3.90;3.60;;;22.10;77.10;;;;;;5057151;28;20405;-71
2021/06/03 00:13:26;;;;;;;4.20;3.80;;;22.20;78.40;;;;;;5056602;28;20420;-71
2021/06/03 00:15:53;;;;;;;4.23;3.87;;;22.10;79.30;;;;;;5055613;28;20460;-71
2021/06/03 00:18:19;;;;;;;3.67;3.37;;;22.10;80.40;;;;;;5056662;28;20486;-71
2021/06/03 00:20:44;;;;;;;4.07;3.67;;;22.10;80.60;;;;;;5056770;28;20808;-71
2021/06/03 00:23:10;;;;;;;4.83;3.73;;;22.10;80.90;;;;;;5053564;28;20496;-71
2021/06/03 00:25:36;;;;;;;4.43;4.03;;;22.00;81.10;;;;;;5053552;28;20213;-71
2021/06/03 00:28:03;;;;;;;3.93;3.60;;;22.00;81.80;;;;;;5053250;28;20185;-71
2021/06/03 00:30:29;;;;;;;4.60;4.20;;;22.00;82.50;;;;;;5053860;28;20178;-72
2021/06/03 00:32:54;;;;;;;4.33;4.00;;;22.00;83.70;;;;;;5054003;28;20415;-71
2021/06/03 00:35:21;;;;;;;4.67;4.03;;;21.90;83.60;;;;;;5053602;28;20921;-72
2021/06/03 00:37:48;;;;;;;6.10;4.33;;;21.80;84.30;;;;;;5052923;28;20216;-71
2021/06/03 00:40:15;;;;;;;5.30;3.53;;;21.80;84.90;;;;;;5053536;28;20775;-71
2021/06/03 00:42:41;;;;;;;4.63;4.23;;;21.80;85.20;;;;;;5068827;28;20417;-72
2021/06/03 00:45:11;;;;;;;5.80;3.83;;;21.80;85.60;;;;;;5070162;28;20505;-71
2021/06/03 00:47:37;;;;;;;4.30;3.90;;;21.80;86.20;;;;;;5076003;28;20404;-72
2021/06/03 00:50:18;;;;;;;4.10;3.80;;;21.70;86.50;;;;;;5076674;28;20405;-72
2021/06/03 00:52:44;;;;;;;4.23;3.93;;;21.70;87.00;;;;;;5059800;28;20178;-71
2021/06/03 00:55:10;;;;;;;3.73;3.40;;;21.70;87.20;;;;;;5056872;28;20551;-71
2021/06/03 00:57:36;;;;;;;4.57;4.17;;;21.70;87.50;;;;;;5057025;28;20288;-71
2021/06/03 01:00:09;;;;;;;4.43;3.83;;;21.60;87.70;;;;;;5056650;28;20220;-71
2021/06/03 01:02:35;;;;;;;4.30;3.90;;;21.60;88.10;;;;;;5054378;28;20397;-71
2021/06/03 01:05:04;;;;;;;5.43;4.97;;;21.60;88.70;;;;;;5053066;28;20800;-70
2021/06/03 01:07:31;;;;;;;3.83;3.53;;;21.60;88.90;;;;;;5053059;28;20208;-72
2021/06/03 01:10:11;;;;;;;4.67;4.00;;;21.50;89.30;;;;;;5054828;28;20426;-71
2021/06/03 01:12:50;;;;;;;4.33;4.03;;;21.50;89.80;;;;;;5057394;28;20765;-71
2021/06/03 01:15:17;;;;;;;14.93;4.43;;;21.50;90.00;;;;;;5063505;28;20466;-70
2021/06/03 01:17:43;;;;;;;5.20;3.80;;;21.50;90.20;;;;;;5077697;28;20548;-70
2021/06/03 01:20:10;;;;;;;4.40;4.00;;;21.50;90.30;;;;;;5057758;28;20486;-71
2021/06/03 01:22:53;;;;;;;4.47;4.03;;;21.50;90.40;;;;;;5056733;28;20538;-72
2021/06/03 01:25:22;;;;;;;4.57;4.13;;;21.40;90.70;;;;;;5056672;28;20463;-71
2021/06/03 01:27:49;;;;;;;7.17;3.87;;;21.40;91.00;;;;;;5055606;28;20523;-71
2021/06/03 01:30:21;;;;;;;4.00;3.70;;;21.40;91.10;;;;;;5056401;28;20424;-71
2021/06/03 01:32:55;;;;;;;5.63;3.90;;;21.40;91.30;;;;;;5056982;28;20411;-71
2021/06/03 01:35:31;;;;;;;4.60;4.20;;;21.40;91.60;;;;;;5056335;28;20198;-71
2021/06/03 01:37:57;;;;;;;4.67;4.27;;;21.30;92.20;;;;;;5056564;28;20999;-71
2021/06/03 01:40:25;;;;;;;5.07;4.57;;;21.30;92.50;;;;;;5056163;28;20468;-71
2021/06/03 01:42:51;;;;;;;4.50;4.10;;;21.10;93.50;;;;;;5056663;28;20446;-71
2021/06/03 01:45:17;;;;;;;5.93;4.00;;;21.00;93.90;;;;;;5056726;28;20431;-71
2021/06/03 01:47:44;;;;;;;7.30;4.50;;;20.90;94.70;;;;;;5056235;28;20773;-71
2021/06/03 01:50:11;;;;;;;4.00;3.70;;;20.70;95.10;;;;;;5056539;28;20474;-71
2021/06/03 01:52:38;;;;;;;4.00;3.70;;;20.70;95.50;;;;;;5055619;28;20521;-71
2021/06/03 01:55:06;;;;;;;4.47;4.17;;;20.60;95.30;;;;;;5056287;28;20572;-71
2021/06/03 01:57:31;;;;;;;4.57;4.07;;;20.60;95.50;;;;;;5056007;28;20801;-71
2021/06/03 01:59:57;;;;;;;5.67;4.80;;;20.50;95.80;;;;;;5054558;28;20534;-71
2021/06/03 02:02:23;;;;;;;6.63;5.97;;;20.50;96.00;;;;;;5055623;28;20521;-72
2021/06/03 02:04:48;;;;;;;7.30;6.30;;;20.50;96.20;;;;;;5056109;28;20284;-71
2021/06/03 02:07:14;;;;;;;5.63;5.10;;;20.50;96.80;;;;;;5055973;28;20175;-71
2021/06/03 02:09:40;;;;;;;7.25;4.57;;;20.40;97.10;;;;;;5055740;28;20412;-71
2021/06/03 02:12:08;;;;;;;4.80;4.40;;;20.40;97.20;;;;;;5055871;28;20169;-71
2021/06/03 02:14:38;;;;;;;6.03;5.50;;;20.30;97.50;;;;;;5055385;28;20209;-70
2021/06/03 02:17:10;;;;;;;5.10;4.70;;;20.30;97.80;;;;;;5056068;28;20459;-70
2021/06/03 02:19:48;;;;;;;6.83;4.20;;;20.30;98.00;;;;;;5056026;28;20762;-71
2021/06/03 02:22:14;;;;;;;7.07;5.80;;;20.20;98.10;;;;;;5055283;28;20913;-71
2021/06/03 02:24:41;;;;;;;8.13;7.33;;;20.20;97.90;;;;;;5055960;28;20444;-69
2021/06/03 02:27:07;;;;;;;4.40;4.10;;;20.20;97.90;;;;;;5055366;28;20798;-70
2021/06/03 02:29:34;;;;;;;4.30;4.00;;;20.20;97.80;;;;;;5055890;28;20470;-71
2021/06/03 02:32:00;;;;;;;6.37;4.13;;;20.20;97.80;;;;;;5055185;28;20861;-71
2021/06/03 02:34:26;;;;;;;5.00;4.50;;;20.20;97.80;;;;;;5054857;28;20449;-71
2021/06/03 02:36:51;;;;;;;7.43;6.83;;;20.20;98.20;;;;;;5055737;28;20650;-72
2021/06/03 02:39:19;;;;;;;4.80;4.40;;;20.10;98.50;;;;;;5055026;28;20170;-72
2021/06/03 02:41:44;;;;;;;7.00;5.97;;;20.10;98.20;;;;;;5054635;28;20163;-72
2021/06/03 02:44:10;;;;;;;6.40;5.23;;;20.10;98.20;;;;;;5055250;28;20955;-70
2021/06/03 02:46:35;;;;;;;4.80;4.40;;;20.10;98.10;;;;;;5055214;28;20182;-71
2021/06/03 02:49:01;;;;;;;4.37;3.97;;;20.10;98.20;;;;;;5055794;28;20166;-70
2021/06/03 02:51:27;;;;;;;6.70;3.93;;;20.00;98.40;;;;;;5055633;28;20166;-72
2021/06/03 02:53:52;;;;;;;5.30;4.40;;;20.00;98.30;;;;;;5054833;28;20246;-72
2021/06/03 02:56:19;;;;;;;4.63;4.07;;;20.00;98.20;;;;;;5054680;28;20202;-73
2021/06/03 02:58:44;;;;;;;4.33;3.93;;;20.10;98.10;;;;;;5054943;28;20581;-71
2021/06/03 03:01:10;;;;;;;3.70;3.40;;;20.20;97.70;;;;;;5048640;28;20582;-71
2021/06/03 03:03:36;;;;;;;3.83;3.53;;;20.20;97.30;;;;;;5041435;28;20206;-71
2021/06/03 03:06:01;;;;;;;4.90;3.70;;;20.20;97.20;;;;;;5042640;28;20277;-71
2021/06/03 03:08:27;;;;;;;4.50;4.10;;;20.20;97.30;;;;;;5053804;28;20412;-72
2021/06/03 03:10:55;;;;;;;4.60;3.53;;;20.20;97.50;;;;;;5054451;28;20198;-71
2021/06/03 03:13:21;;;;;;;5.53;3.90;;;20.10;97.60;;;;;;5054304;28;20170;-72
2021/06/03 03:15:47;;;;;;;4.20;3.80;;;20.10;97.70;;;;;;5054751;28;20429;-71
2021/06/03 03:18:13;;;;;;;4.33;3.40;;;20.00;97.80;;;;;;5054646;28;20534;-71
2021/06/03 03:20:39;;;;;;;3.80;3.43;;;20.00;97.90;;;;;;5054280;28;20416;-71
2021/06/03 03:23:07;;;;;;;3.90;3.57;;;20.00;97.90;;;;;;5054552;28;20174;-71
2021/06/03 03:25:33;;;;;;;3.60;3.30;;;20.00;98.30;;;;;;5054458;28;20439;-72
2021/06/03 03:27:59;;;;;;;3.80;3.50;;;19.90;98.10;;;;;;5053893;28;20504;-71
2021/06/03 03:30:27;;;;;;;3.43;3.13;;;20.00;98.20;;;;;;5054194;28;20439;-72
2021/06/03 03:32:53;;;;;;;5.27;4.87;;;19.90;98.20;;;;;;5053973;28;20770;-71
2021/06/03 03:35:19;;;;;;;3.70;3.27;;;19.90;98.40;;;;;;5054274;28;20435;-71
2021/06/03 03:37:46;;;;;;;3.70;3.40;;;19.90;98.60;;;;;;5053348;28;20929;-71
2021/06/03 03:40:18;;;;;;;3.83;2.90;;;19.90;98.60;;;;;;5054087;28;20214;-72
2021/06/03 03:42:44;;;;;;;4.50;3.73;;;19.80;98.70;;;;;;5054608;28;20405;-71
2021/06/03 03:45:13;;;;;;;7.20;4.07;;;19.80;98.70;;;;;;5054219;28;20802;-71
2021/06/03 03:47:39;;;;;;;3.60;3.30;;;19.80;99.10;;;;;;5054326;28;20744;-72
2021/06/03 03:50:07;;;;;;;5.00;4.50;;;19.80;99.00;;;;;;5053010;28;20428;-72
2021/06/03 03:52:33;;;;;;;4.10;3.47;;;19.80;99.10;;;;;;5053963;28;20412;-71
2021/06/03 03:55:00;;;;;;;3.60;3.30;;;19.80;98.90;;;;;;5054217;28;20429;-73
2021/06/03 03:57:25;;;;;;;4.00;3.60;;;19.80;98.80;;;;;;5052081;28;20196;-71
2021/06/03 03:59:51;;;;;;;4.53;3.80;;;19.80;99.10;;;;;;5046583;28;20861;-72
2021/06/03 04:02:17;;;;;;;4.60;4.07;;;19.70;99.20;;;;;;5034745;28;20170;-71
2021/06/03 04:04:58;;;;;;;4.00;3.70;;;19.60;99.50;;;;;;5033997;28;20187;-72
2021/06/03 04:07:24;;;;;;;6.67;4.17;;;19.60;99.70;;;;;;5034738;28;20479;-71
2021/06/03 04:09:49;;;;;;;4.33;3.93;;;19.70;99.60;;;;;;5041922;28;20416;-72
2021/06/03 04:12:15;;;;;;;4.00;3.60;;;19.70;99.80;;;;;;5053815;28;20400;-72
2021/06/03 04:14:40;;;;;;;4.33;3.43;;;19.70;99.80;;;;;;5053909;28;20723;-72
2021/06/03 04:17:06;;;;;;;4.33;3.43;;;19.70;99.90;;;;;;5052986;28;20261;-72
2021/06/03 04:19:31;;;;;;;4.67;3.80;;;19.60;99.90;;;;;;5054160;28;20678;-72
2021/06/03 04:21:58;;;;;;;4.90;3.60;;;19.60;99.90;;;;;;5053479;28;20226;-72
2021/06/03 04:24:25;;;;;;;3.90;3.50;;;19.60;99.90;;;;;;5054072;28;20166;-72
2021/06/03 04:26:50;;;;;;;5.90;3.27;;;19.70;99.90;;;;;;5052481;28;20425;-72
2021/06/03 04:29:16;;;;;;;3.67;3.37;;;19.80;99.90;;;;;;5053451;28;20424;-71
2021/06/03 04:31:41;;;;;;;3.47;3.17;;;19.90;99.90;;;;;;5053265;28;20178;-71
2021/06/03 04:34:07;;;;;;;3.83;3.53;;;19.90;99.90;;;;;;5061969;28;20257;-70
2021/06/03 04:36:32;;;;;;;3.83;3.53;;;19.90;99.90;;;;;;5071890;28;20189;-71
2021/06/03 04:38:58;;;;;;;3.80;3.50;;;19.90;99.90;;;;;;5066798;28;20190;-71
2021/06/03 04:41:23;;;;;;;3.90;3.30;;;19.90;99.90;;;;;;5053102;28;20178;-71
2021/06/03 04:43:49;;;;;;;3.97;3.30;;;19.90;99.90;;;;;;5052432;28;20182;-72
2021/06/03 04:46:15;;;;;;;3.70;3.40;;;19.90;99.90;;;;;;5052831;28;20240;-71
2021/06/03 04:48:41;;;;;;;4.17;3.83;;;19.90;99.90;;;;;;5053330;28;20178;-71
2021/06/03 04:51:07;;;;;;;5.17;3.80;;;19.90;99.90;;;;;;5053435;28;20409;-72
2021/06/03 04:53:32;;;;;;;3.90;3.60;;;19.90;99.90;;;;;;5052775;28;20182;-71
2021/06/03 04:55:58;;;;;;;4.13;3.40;;;19.90;99.90;;;;;;5047951;28;20566;-71
2021/06/03 04:58:24;;;;;;;3.63;3.33;;;20.00;99.90;;;;;;5041825;28;20217;-71
2021/06/03 05:00:49;;;;;;;4.10;3.80;;;20.10;99.90;;;;;;5033087;28;20175;-71
2021/06/03 05:03:15;;;;;;;3.93;3.53;;;20.10;99.90;;;;;;5041612;28;20183;-71
2021/06/03 05:05:41;;;;;;;4.20;3.03;;;20.20;99.90;;;;;;5052891;28;20190;-71
2021/06/03 05:08:08;;;;;;;3.30;3.00;;;20.20;99.90;;;;;;5053056;28;20235;-71
2021/06/03 05:10:34;;;;;;;3.57;3.27;;;20.30;99.90;;;;;;5053166;28;20830;-71
2021/06/03 05:13:01;;;;;;;4.47;4.07;;;20.40;99.90;;;;;;5052859;28;20416;-72
2021/06/03 05:15:27;;;;;;;3.80;3.50;;;20.40;99.90;;;;;;5053016;28;20446;-71
2021/06/03 05:17:54;;;;;;;4.23;3.90;;;20.50;99.90;;;;;;5052622;28;20901;-71
2021/06/03 05:20:22;;;;;;;6.00;4.47;;;20.60;99.90;;;;;;5053042;28;20413;-71
2021/06/03 05:22:51;;;;;;;3.90;3.60;;;20.70;99.90;;;;;;5052532;28;20447;-72
2021/06/03 05:25:19;;;;;;;3.60;3.30;;;20.80;99.90;;;;;;5052203;28;20440;-71
2021/06/03 05:27:46;;;;;;;3.60;3.30;;;20.90;99.90;;;;;;5052436;28;20396;-71
2021/06/03 05:30:14;;;;;;;3.33;3.03;;;21.00;99.90;;;;;;5052286;28;20428;-71
2021/06/03 05:32:40;;;;;;;3.40;3.20;;;21.20;99.90;;;;;;5051452;28;20419;-71
2021/06/03 05:35:07;;;;;;;3.90;3.50;;;21.30;99.90;;;;;;5052729;28;20526;-72
2021/06/03 05:37:33;;;;;;;3.80;3.40;;;21.50;99.80;;;;;;5052458;28;20681;-69
2021/06/03 05:39:58;;;;;;;3.37;3.07;;;21.60;98.70;;;;;;5052054;28;20506;-69
2021/06/03 05:42:24;;;;;;;3.97;3.00;;;21.70;95.60;;;;;;5052505;28;20535;-70
2021/06/03 05:44:50;;;;;;;3.13;2.90;;;21.90;95.80;;;;;;5052395;28;20189;-69
2021/06/03 05:47:16;;;;;;;4.07;3.10;;;22.00;95.80;;;;;;5046007;28;20737;-70
2021/06/03 05:49:41;;;;;;;3.50;3.10;;;22.10;95.60;;;;;;5036314;28;20441;-70
2021/06/03 05:52:07;;;;;;;7.30;4.20;;;22.20;95.90;;;;;;5046223;28;20551;-70
2021/06/03 05:54:33;;;;;;;3.55;3.10;;;22.30;96.00;;;;;;5052244;28;20448;-70
2021/06/03 05:57:00;;;;;;;4.13;3.20;;;22.40;96.00;;;;;;5055726;28;20233;-70
2021/06/03 05:59:27;;;;;;;3.50;3.20;;;22.40;95.90;;;;;;5055612;28;20460;-71
2021/06/03 06:01:58;;;;;;;3.37;2.90;;;22.50;95.70;;;;;;5056616;28;20412;-68
2021/06/03 06:06:49;;;;;;;3.60;3.30;;;22.60;95.50;;;;;;5056506;28;20953;-70
2021/06/03 06:09:14;;;;;;;5.03;3.13;;;22.70;95.50;;;;;;5056082;28;20185;-71
2021/06/03 06:11:42;;;;;;;3.43;3.13;;;22.70;95.40;;;;;;5056280;28;20554;-70
2021/06/03 06:14:08;;;;;;;3.90;3.50;;;22.70;95.30;;;;;;5055426;28;20628;-70
2021/06/03 06:16:35;;;;;;;3.30;3.10;;;22.80;95.60;;;;;;5056135;28;20433;-70
2021/06/03 06:19:02;;;;;;;3.83;3.50;;;22.80;95.40;;;;;;5055723;28;20574;-70
2021/06/03 06:21:28;;;;;;;3.97;3.67;;;22.80;96.50;;;;;;5054333;28;20905;-71
2021/06/03 06:23:54;;;;;;;4.67;3.50;;;22.80;95.80;;;;;;5055756;28;20185;-70
2021/06/03 06:26:20;;;;;;;3.78;3.42;;;22.90;95.70;;;;;;5054976;28;20769;-70
2021/06/03 06:28:46;;;;;;;3.30;3.00;;;22.90;95.60;;;;;;5056123;28;20240;-69
2021/06/03 06:31:13;;;;;;;3.60;3.30;;;23.00;95.70;;;;;;5055159;28;20904;-70
2021/06/03 06:33:39;;;;;;;4.10;3.63;;;23.00;95.50;;;;;;5055647;28;20178;-70
2021/06/03 06:36:06;;;;;;;3.67;3.37;;;23.00;96.10;;;;;;5055462;28;20482;-69
2021/06/03 06:38:32;;;;;;;4.87;3.60;;;23.00;95.60;;;;;;5054669;28;20945;-70
2021/06/03 06:40:57;;;;;;;4.30;3.50;;;23.10;95.70;;;;;;5056746;28;20470;-69
2021/06/03 06:43:23;;;;;;;4.00;3.50;;;23.10;95.60;;;;;;5055339;28;20228;-69
2021/06/03 06:45:50;;;;;;;4.67;3.63;;;23.10;95.70;;;;;;5055022;28;20293;-69
2021/06/03 06:48:16;;;;;;;5.30;3.47;;;23.10;95.90;;;;;;5055479;28;20421;-69
2021/06/03 06:50:44;;;;;;;5.30;3.60;;;23.10;96.00;;;;;;5044365;28;20433;-69
2021/06/03 06:53:10;;;;;;;6.07;3.77;;;23.20;95.70;;;;;;5048231;28;20844;-70
2021/06/03 06:55:37;;;;;;;4.13;3.83;;;23.20;95.60;;;;;;5043888;28;20445;-70
2021/06/03 06:58:03;;;;;;;3.67;3.37;;;23.10;96.20;;;;;;5049653;28;20461;-69
2021/06/03 07:00:31;;;;;;;4.40;3.73;;;23.10;96.50;;;;;;5052198;28;20417;-71
2021/06/03 07:02:57;;;;;;;3.57;3.27;;;23.10;96.20;;;;;;5051763;28;20508;-70
2021/06/03 07:05:24;;;;;;;4.63;3.30;;;23.10;96.30;;;;;;5048507;28;20510;-70
2021/06/03 07:07:50;;;;;;;4.10;3.70;;;23.10;95.90;;;;;;5055905;28;20204;-69
2021/06/03 07:10:15;;;;;;;3.77;3.40;;;23.10;96.10;;;;;;5051184;28;20468;-69
2021/06/03 07:12:42;;;;;;;14.30;4.83;;;23.10;96.10;;;;;;5041262;28;20441;-69
2021/06/03 07:15:10;;;;;;;4.63;4.23;;;23.20;96.20;;;;;;5054785;28;20210;-70
2021/06/03 07:17:36;;;;;;;6.00;3.90;;;23.30;96.30;;;;;;5043605;28;20453;-69
2021/06/03 07:20:11;;;;;;;3.97;3.57;;;23.40;96.70;;;;;;5049679;28;20424;-70
2021/06/03 07:22:38;;;;;;;4.50;4.10;;;23.60;96.00;;;;;;5044091;28;20609;-70
2021/06/03 07:25:06;;;;;;;4.87;4.27;;;23.60;96.30;;;;;;5048785;28;20437;-71
2021/06/03 07:27:32;;;;;;;5.00;4.40;;;23.70;97.60;;;;;;5043914;28;20422;-70
2021/06/03 07:30:00;;;;;;;3.90;3.60;;;23.80;97.20;;;;;;5045760;28;20466;-71
2021/06/03 07:32:26;;;;;;;5.37;4.77;;;23.80;96.50;;;;;;5043700;28;20448;-70
2021/06/03 07:34:52;;;;;;;4.10;3.70;;;24.10;96.30;;;;;;5040248;28;20527;-71
2021/06/03 07:37:18;;;;;;;4.70;4.27;;;24.20;96.10;;;;;;5037670;28;20620;-70
2021/06/03 07:39:43;;;;;;;5.27;4.20;;;24.30;96.60;;;;;;5039110;28;20464;-71
2021/06/03 07:42:11;;;;;;;4.27;3.97;;;24.30;95.90;;;;;;5036748;28;20629;-70
2021/06/03 07:44:37;;;;;;;5.63;4.47;;;24.30;95.60;;;;;;5035169;28;20194;-70
2021/06/03 07:47:03;;;;;;;4.57;4.17;;;24.40;95.50;;;;;;5043155;28;20452;-71
2021/06/03 07:49:29;;;;;;;6.63;5.07;;;24.50;95.60;;;;;;5054157;28;20416;-71
2021/06/03 07:51:56;;;;;;;5.17;4.77;;;24.50;96.30;;;;;;5054295;28;20178;-70
2021/06/03 07:54:22;;;;;;;6.37;4.20;;;24.40;97.30;;;;;;5053737;28;20178;-70
2021/06/03 07:56:47;;;;;;;4.78;4.38;;;24.30;97.20;;;;;;5046964;28;20491;-71
2021/06/03 07:59:13;;;;;;;4.80;4.40;;;24.30;96.10;;;;;;5042211;28;20620;-71
2021/06/03 08:01:59;;;;;;;5.57;4.93;;;24.30;96.10;;;;;;5041712;28;20174;-71
2021/06/03 08:04:25;;;;;;;6.20;4.50;;;24.30;97.10;;;;;;5053706;28;20181;-70
2021/06/03 08:06:51;;;;;;;5.07;4.57;;;24.20;97.30;;;;;;5053466;28;20417;-71
2021/06/03 08:09:16;;;;;;;4.53;4.13;;;24.30;96.10;;;;;;5053020;28;20254;-71
2021/06/03 08:11:44;;;;;;;4.57;4.20;;;24.40;96.20;;;;;;5054381;28;20170;-70
2021/06/03 08:14:10;;;;;;;4.30;3.90;;;24.50;95.70;;;;;;5053288;28;20189;-71
2021/06/03 08:16:36;;;;;;;5.00;4.60;;;24.60;95.20;;;;;;5053242;28;21018;-70
2021/06/03 08:19:02;;;;;;;5.17;3.97;;;24.70;95.10;;;;;;5053107;28;20464;-70
2021/06/03 08:21:27;;;;;;;4.70;4.30;;;24.70;95.30;;;;;;5053847;28;20313;-70
2021/06/03 08:23:54;;;;;;;4.67;4.27;;;24.80;95.10;;;;;;5052902;28;20233;-72
2021/06/03 08:26:20;;;;;;;4.37;4.07;;;24.80;95.20;;;;;;5046219;28;20202;-71
2021/06/03 08:28:46;;;;;;;4.40;4.00;;;24.70;95.00;;;;;;5043365;28;20948;-71
2021/06/03 08:31:11;;;;;;;4.40;4.00;;;24.70;95.50;;;;;;5042074;28;20429;-70
2021/06/03 08:33:37;;;;;;;4.33;3.97;;;24.60;96.00;;;;;;5053462;28;20174;-70
2021/06/03 08:36:03;;;;;;;4.67;4.17;;;24.50;96.10;;;;;;5052130;28;20297;-72
2021/06/03 08:38:29;;;;;;;5.60;4.63;;;24.50;95.60;;;;;;5041050;28;20206;-71
2021/06/03 08:40:58;;;;;;;6.20;5.03;;;24.50;95.60;;;;;;5042519;28;20436;-71
2021/06/03 08:43:29;;;;;;;4.87;4.40;;;24.40;95.70;;;;;;5039520;28;20429;-70
2021/06/03 08:45:57;;;;;;;4.50;4.10;;;24.20;95.80;;;;;;5052377;28;20543;-73
2021/06/03 08:48:23;;;;;;;4.17;3.50;;;24.20;96.50;;;;;;5053232;28;20452;-72
2021/06/03 08:50:53;;;;;;;4.50;3.90;;;24.10;97.50;;;;;;5052825;28;20420;-70
2021/06/03 08:53:19;;;;;;;4.80;4.40;;;24.00;97.90;;;;;;5046877;28;20452;-71
2021/06/03 08:58:30;;;;;;;4.10;3.80;;;24.00;98.50;;;;;;5053165;28;20802;-71
2021/06/03 09:00:57;;;;;;;4.00;3.70;;;23.90;98.70;;;;;;5051026;28;20420;-72
2021/06/03 09:03:24;;;;;;;4.40;4.00;;;23.80;98.90;;;;;;5050617;28;20427;-72
2021/06/03 09:05:50;;;;;;;4.00;3.70;;;23.90;99.30;;;;;;5050568;28;20431;-71
2021/06/03 09:08:25;;;;;;;5.63;4.30;;;23.80;99.60;;;;;;5051476;28;20405;-72
2021/06/03 09:10:53;;;;;;;4.73;4.33;;;23.80;99.70;;;;;;5051303;28;20208;-72
2021/06/03 09:13:21;;;;;;;4.70;4.03;;;23.80;99.90;;;;;;5051247;28;20500;-72
2021/06/03 09:15:52;;;;;;;4.90;4.40;;;23.80;99.80;;;;;;5052440;28;20452;-70
2021/06/03 09:18:36;;;;;;;5.50;4.20;;;23.80;99.80;;;;;;5050315;28;20462;-71
2021/06/03 09:21:24;;;;;;;4.97;3.70;;;23.80;99.80;;;;;;5052636;28;20454;-72
2021/06/03 09:24:00;;;;;;;5.10;4.70;;;23.90;99.70;;;;;;5029803;28;20417;-72
2021/06/03 09:26:29;;;;;;;5.68;4.53;;;23.90;99.60;;;;;;5031902;28;20829;-72
2021/06/03 09:28:57;;;;;;;4.30;4.00;;;24.00;99.60;;;;;;5032275;28;20262;-72
2021/06/03 09:31:29;;;;;;;5.27;3.97;;;23.80;99.70;;;;;;5034638;28;20401;-72
2021/06/03 09:34:04;;;;;;;7.43;4.80;;;23.80;99.90;;;;;;5054274;28;20721;-72
2021/06/03 09:36:32;;;;;;;5.97;4.57;;;24.00;99.80;;;;;;5055971;28;20419;-72
2021/06/03 09:39:06;;;;;;;5.60;5.10;;;24.30;99.60;;;;;;5056708;28;21015;-72
2021/06/03 09:41:33;;;;;;;5.50;5.00;;;24.50;99.40;;;;;;5056134;28;20946;-72
2021/06/03 09:44:15;;;;;;;5.43;4.83;;;24.70;99.20;;;;;;5056338;28;20401;-71
2021/06/03 09:46:56;;;;;;;6.37;5.10;;;24.90;99.00;;;;;;5056659;28;20816;-72
2021/06/03 09:49:46;;;;;;;5.20;4.70;;;25.00;98.90;;;;;;5056718;28;20400;-72
2021/06/03 09:52:11;;;;;;;6.60;5.37;;;25.00;98.80;;;;;;5038378;28;20434;-71
2021/06/03 09:54:39;;;;;;;5.30;4.80;;;25.00;98.80;;;;;;5036299;28;20558;-71
2021/06/03 09:57:07;;;;;;;5.70;5.20;;;25.10;98.90;;;;;;5036336;28;20935;-72
2021/06/03 09:59:39;;;;;;;5.20;4.77;;;25.20;98.90;;;;;;5036331;28;20189;-73
2021/06/03 10:02:17;;;;;;;5.07;4.67;;;25.20;98.80;;;;;;5050071;28;20419;-71
2021/06/03 10:04:56;;;;;;;5.80;5.30;;;25.30;98.80;;;;;;5055898;28;20436;-71
2021/06/03 10:07:25;;;;;;;5.43;4.93;;;25.40;98.60;;;;;;5056435;28;20797;-72
2021/06/03 10:09:53;;;;;;;5.90;5.27;;;25.40;98.60;;;;;;5056746;28;20417;-72
2021/06/03 10:12:22;;;;;;;6.13;5.47;;;25.50;98.40;;;;;;5056004;28;20474;-73
2021/06/03 10:14:56;;;;;;;5.43;5.00;;;25.60;98.20;;;;;;5055590;28;20451;-72
2021/06/03 10:17:32;;;;;;;5.63;5.13;;;25.70;98.10;;;;;;5055971;28;20462;-71
2021/06/03 10:20:00;;;;;;;6.27;5.67;;;25.80;98.00;;;;;;5055983;28;20824;-72
2021/06/03 10:22:29;;;;;;;7.73;6.77;;;25.80;98.00;;;;;;5055600;28;20778;-73
2021/06/03 10:25:01;;;;;;;6.80;6.20;;;25.80;98.00;;;;;;5056345;28;20813;-72
2021/06/03 10:27:30;;;;;;;6.70;6.10;;;25.90;97.90;;;;;;5055563;28;20409;-72
2021/06/03 10:29:56;;;;;;;7.03;6.17;;;25.50;98.20;;;;;;5054748;28;20457;-72
2021/06/03 10:32:25;;;;;;;6.40;5.90;;;25.50;98.50;;;;;;5055924;28;20488;-73
2021/06/03 10:34:53;;;;;;;6.70;6.10;;;25.60;98.50;;;;;;5054506;28;20433;-71
2021/06/03 10:37:20;;;;;;;7.00;6.33;;;25.60;98.60;;;;;;5055415;28;20463;-71
2021/06/03 10:39:47;;;;;;;7.73;5.90;;;25.80;98.50;;;;;;5056235;28;20416;-71
2021/06/03 10:42:15;;;;;;;6.60;6.10;;;25.80;98.20;;;;;;5055563;28;20480;-72
2021/06/03 10:44:41;;;;;;;6.60;5.30;;;25.90;98.00;;;;;;5054904;28;20439;-72
2021/06/03 10:47:10;;;;;;;5.80;5.10;;;25.90;97.90;;;;;;5055167;28;20401;-71
2021/06/03 10:49:36;;;;;;;6.13;5.63;;;25.70;98.00;;;;;;5055127;28;20459;-71
2021/06/03 10:52:07;;;;;;;5.80;5.20;;;25.70;98.20;;;;;;5054258;28;20424;-72
2021/06/03 10:54:43;;;;;;;5.53;5.03;;;25.60;98.10;;;;;;5053372;28;20428;-72
2021/06/03 10:57:11;;;;;;;5.20;4.70;;;25.40;97.70;;;;;;5055417;28;20464;-72
2021/06/03 10:59:37;;;;;;;5.30;4.83;;;25.40;97.60;;;;;;5055097;28;20420;-71
2021/06/03 11:02:07;;;;;;;5.43;4.57;;;25.40;97.60;;;;;;5057640;28;20502;-72
2021/06/03 11:04:34;;;;;;;4.70;4.40;;;25.30;97.90;;;;;;5057325;28;20890;-72
2021/06/03 11:07:01;;;;;;;4.07;3.67;;;25.30;98.00;;;;;;5055325;28;20417;-72
2021/06/03 11:09:34;;;;;;;4.30;3.87;;;25.20;98.00;;;;;;5054530;28;21046;-72
2021/06/03 11:12:19;;;;;;;4.03;3.60;;;25.10;97.90;;;;;;5055441;28;20563;-71
2021/06/03 11:15:08;;;;;;;3.83;3.50;;;25.10;97.40;;;;;;5054566;28;20470;-72
2021/06/03 11:17:55;;;;;;;4.30;3.90;;;25.10;97.60;;;;;;5055265;28;20485;-73
2021/06/03 11:20:42;;;;;;;4.27;3.87;;;24.90;97.30;;;;;;5053567;28;20412;-71
2021/06/03 11:23:34;;;;;;;4.27;3.87;;;24.90;97.40;;;;;;5054894;28;20385;-72
2021/06/03 11:26:04;;;;;;;3.87;3.53;;;24.80;97.90;;;;;;5054025;28;20444;-71
2021/06/03 11:28:30;;;;;;;4.33;3.63;;;24.90;97.80;;;;;;5054422;28;20460;-71
2021/06/03 11:30:56;;;;;;;4.33;3.93;;;24.90;98.10;;;;;;5054461;28;20413;-72
2021/06/03 11:33:22;;;;;;;4.40;3.60;;;25.00;98.30;;;;;;5054104;28;20944;-71
2021/06/03 11:35:48;;;;;;;3.73;3.40;;;25.20;98.10;;;;;;5054522;28;20436;-72
2021/06/03 11:38:42;;;;;;;4.10;3.50;;;25.40;97.30;;;;;;5053888;28;20813;-71
2021/06/03 11:41:30;;;;;;;3.83;3.43;;;25.40;97.30;;;;;;5053163;28;20319;-72
2021/06/03 11:44:22;;;;;;;5.60;4.00;;;25.40;97.30;;;;;;5054133;28;20443;-71
2021/06/03 11:46:50;;;;;;;5.80;3.63;;;25.30;97.60;;;;;;5053880;28;21292;-72
2021/06/03 11:49:35;;;;;;;4.40;4.00;;;25.30;97.70;;;;;;5053716;28;20504;-71
2021/06/03 11:52:12;;;;;;;4.60;3.20;;;25.50;97.40;;;;;;5054487;28;20507;-72
2021/06/03 11:54:57;;;;;;;4.97;3.30;;;25.60;97.20;;;;;;5053220;28;20543;-72
2021/06/03 11:57:26;;;;;;;4.37;3.20;;;25.70;97.30;;;;;;5054131;28;20548;-72
2021/06/03 12:00:12;;;;;;;4.00;3.70;;;25.80;97.20;;;;;;5053696;28;20436;-72
2021/06/03 12:02:44;;;;;;;4.50;4.07;;;25.80;97.20;;;;;;5054013;28;20396;-72
2021/06/03 12:05:09;;;;;;;4.40;4.00;;;26.00;97.30;;;;;;5053823;28;20558;-72
2021/06/03 12:07:54;;;;;;;4.43;3.87;;;25.90;97.40;;;;;;5057615;28;20466;-70
2021/06/03 12:10:41;;;;;;;4.07;3.70;;;25.70;97.80;;;;;;5056127;28;20194;-72
2021/06/03 12:13:16;;;;;;;5.03;4.10;;;25.80;97.70;;;;;;5053795;28;20522;-71
2021/06/03 12:15:42;;;;;;;4.80;4.40;;;25.80;97.40;;;;;;5053655;28;20432;-71
2021/06/03 12:18:08;;;;;;;4.70;4.20;;;26.00;97.40;;;;;;5052474;28;20467;-72
2021/06/03 12:20:34;;;;;;;6.63;4.60;;;26.20;97.30;;;;;;5053530;28;20332;-71
2021/06/03 12:23:05;;;;;;;4.80;4.40;;;26.00;97.40;;;;;;5053654;28;20174;-72
2021/06/03 12:25:41;;;;;;;6.17;5.40;;;26.00;97.40;;;;;;5053298;28;20632;-72
2021/06/03 12:28:10;;;;;;;4.97;4.57;;;25.90;97.30;;;;;;5053683;28;20424;-71
2021/06/03 12:30:38;;;;;;;5.60;5.10;;;25.80;97.50;;;;;;5053856;28;20421;-70
2021/06/03 12:33:10;;;;;;;5.25;4.75;;;25.90;97.50;;;;;;5057728;28;20450;-71
2021/06/03 12:35:43;;;;;;;5.93;5.27;;;26.00;96.90;;;;;;5053237;28;20273;-71
2021/06/03 12:38:23;;;;;;;4.57;4.17;;;26.10;96.80;;;;;;5045034;28;20978;-70
2021/06/03 12:40:49;;;;;;;4.30;3.97;;;26.20;96.60;;;;;;5040025;28;20474;-71
2021/06/03 12:43:15;;;;;;;4.93;4.53;;;26.40;96.50;;;;;;5053135;28;20790;-70
2021/06/03 12:45:42;;;;;;;4.70;4.30;;;26.40;96.00;;;;;;5052587;28;20691;-71
2021/06/03 12:48:10;;;;;;;5.07;4.20;;;26.50;95.90;;;;;;5053337;28;20185;-71
2021/06/03 12:50:38;;;;;;;4.07;3.70;;;26.40;95.80;;;;;;5053618;28;20413;-70
2021/06/03 12:53:11;;;;;;;6.30;4.60;;;26.50;95.80;;;;;;5053127;28;20416;-71
2021/06/03 12:55:37;;;;;;;4.70;3.90;;;26.50;95.40;;;;;;5053677;28;20520;-72
2021/06/03 12:58:12;;;;;;;4.53;3.77;;;26.50;95.30;;;;;;5052555;28;20468;-72
2021/06/03 13:00:39;;;;;;;3.90;3.60;;;26.50;95.40;;;;;;5051309;28;20443;-72